PWSweather.com
Personal Weather Stations
Station Observations
ISYDDANM23
Felsted, AabenraaDK 6200

FelstedAabenraaDK 6200

Lat: 54.977066, Lon: 9.507192

Elevation: 135

Station Type: Davis Vantage Pro 2 Plus 24H

http://www.valkaer.dk

High Low Average
Temperature 61.0°F16.1°C 51.1°F10.6°C 57.4°F14.1°C
Dew Point 55.3°F12.9°C 47.5°F8.6°C 52.9°F11.6°C
Winds 9.2 mph 14.8 kmh Calm Calm 4.0 mph NE6.4 kmh NE
Wind Gusts 16.1 mph25.9 kmh -- 7.0 mph11.3 kmh
Humidity 90% 80% 85%
Pressure 30.17 in1021.7 mb 29.93 in1013.5 mb -
Precipitation 0.07 in1.8 mm - -
Hour Temp Dew Point Humidity Winds Wind Gusts Pressure Precip Precip Rate Daily Precip Total
12:00 AM 53.5°F11.9°C 49.7°F9.8°C 87% Calm Calm -- 30.17 in1021.7 mb - 0.00 in0.0 mm 0.00 in0.0 mm
12:10 AM 52.3°F11.3°C 48.5°F9.2°C 87% Calm Calm -- 30.16 in1021.3 mb - 0.00 in0.0 mm 0.00 in0.0 mm
12:15 AM 52.0°F11.1°C 48.2°F9.0°C 87% Calm Calm -- 30.17 in1021.7 mb - 0.00 in0.0 mm 0.00 in0.0 mm
12:20 AM 51.6°F10.9°C 48.2°F9.0°C 88% Calm Calm -- 30.16 in1021.3 mb - 0.00 in0.0 mm 0.00 in0.0 mm
12:25 AM 51.7°F10.9°C 48.3°F9.1°C 88% Calm Calm -- 30.16 in1021.3 mb - 0.00 in0.0 mm 0.00 in0.0 mm
12:30 AM 51.9°F11.1°C 48.5°F9.2°C 88% Calm Calm -- 30.16 in1021.3 mb - 0.00 in0.0 mm 0.00 in0.0 mm
12:35 AM 52.0°F11.1°C 48.9°F9.4°C 89% Calm Calm -- 30.16 in1021.3 mb - 0.00 in0.0 mm 0.00 in0.0 mm
12:40 AM 52.0°F11.1°C 48.6°F9.2°C 88% Calm Calm -- 30.16 in1021.3 mb - 0.00 in0.0 mm 0.00 in0.0 mm
12:45 AM 51.7°F10.9°C 48.0°F8.9°C 87% Calm Calm -- 30.16 in1021.3 mb - 0.00 in0.0 mm 0.00 in0.0 mm
12:50 AM 51.7°F10.9°C 48.0°F8.9°C 87% Calm Calm -- 30.16 in1021.3 mb - 0.00 in0.0 mm 0.00 in0.0 mm
12:55 AM 51.9°F11.1°C 48.5°F9.2°C 88% Calm Calm 1.2 mph1.9 kmh 30.16 in1021.3 mb - 0.00 in0.0 mm 0.00 in0.0 mm
01:00 AM 52.1°F11.2°C 48.7°F9.3°C 88% 1.2 mph SE1.9 kmh SE 1.2 mph1.9 kmh 30.15 in1021.0 mb - 0.00 in0.0 mm 0.00 in0.0 mm
01:10 AM 51.2°F10.7°C 47.5°F8.6°C 87% Calm Calm -- 30.15 in1021.0 mb - 0.00 in0.0 mm 0.00 in0.0 mm
01:15 AM 51.1°F10.6°C 48.0°F8.9°C 89% Calm Calm -- 30.16 in1021.3 mb - 0.00 in0.0 mm 0.00 in0.0 mm
01:20 AM 51.7°F10.9°C 48.9°F9.4°C 90% 1.2 mph SE1.9 kmh SE 1.2 mph1.9 kmh 30.15 in1021.0 mb - 0.00 in0.0 mm 0.00 in0.0 mm
01:25 AM 52.3°F11.3°C 49.2°F9.6°C 89% Calm Calm 2.3 mph3.7 kmh 30.15 in1021.0 mb - 0.00 in0.0 mm 0.00 in0.0 mm
01:30 AM 52.9°F11.6°C 49.4°F9.7°C 88% 1.2 mph SE1.9 kmh SE 2.3 mph3.7 kmh 30.15 in1021.0 mb - 0.00 in0.0 mm 0.00 in0.0 mm
01:35 AM 53.3°F11.8°C 49.5°F9.7°C 87% 1.2 mph SE1.9 kmh SE 1.2 mph1.9 kmh 30.15 in1021.0 mb - 0.00 in0.0 mm 0.00 in0.0 mm
01:40 AM 53.3°F11.8°C 48.9°F9.4°C 85% Calm Calm 1.2 mph1.9 kmh 30.15 in1021.0 mb - 0.00 in0.0 mm 0.00 in0.0 mm
01:45 AM 53.3°F11.8°C 49.2°F9.6°C 86% Calm Calm -- 30.15 in1021.0 mb - 0.00 in0.0 mm 0.00 in0.0 mm
01:50 AM 53.4°F11.9°C 49.0°F9.4°C 85% Calm Calm -- 30.14 in1020.7 mb - 0.00 in0.0 mm 0.00 in0.0 mm
01:55 AM 53.1°F11.7°C 48.7°F9.3°C 85% Calm Calm 2.3 mph3.7 kmh 30.14 in1020.7 mb - 0.00 in0.0 mm 0.00 in0.0 mm
02:00 AM 53.0°F11.7°C 48.6°F9.2°C 85% 1.2 mph SE1.9 kmh SE 1.2 mph1.9 kmh 30.14 in1020.7 mb - 0.00 in0.0 mm 0.00 in0.0 mm
02:10 AM 53.5°F11.9°C 49.7°F9.8°C 87% 2.3 mph ESE3.7 kmh ESE 3.5 mph5.6 kmh 30.14 in1020.7 mb - 0.00 in0.0 mm 0.00 in0.0 mm
02:15 AM 54.1°F12.3°C 50.3°F10.2°C 87% 1.2 mph NNE1.9 kmh NNE 3.5 mph5.6 kmh 30.14 in1020.7 mb - 0.00 in0.0 mm 0.00 in0.0 mm
02:20 AM 54.4°F12.4°C 50.3°F10.2°C 86% 1.2 mph NNE1.9 kmh NNE 2.3 mph3.7 kmh 30.14 in1020.7 mb - 0.00 in0.0 mm 0.00 in0.0 mm
02:25 AM 54.6°F12.6°C 50.5°F10.3°C 86% 1.2 mph NE1.9 kmh NE 3.5 mph5.6 kmh 30.14 in1020.7 mb - 0.00 in0.0 mm 0.00 in0.0 mm
02:30 AM 55.0°F12.8°C 50.9°F10.5°C 86% 1.2 mph NE1.9 kmh NE 3.5 mph5.6 kmh 30.14 in1020.7 mb - 0.00 in0.0 mm 0.00 in0.0 mm
02:35 AM 55.1°F12.8°C 51.0°F10.6°C 86% Calm Calm 1.2 mph1.9 kmh 30.14 in1020.7 mb - 0.00 in0.0 mm 0.00 in0.0 mm
02:40 AM 55.1°F12.8°C 51.0°F10.6°C 86% Calm Calm 1.2 mph1.9 kmh 30.14 in1020.7 mb - 0.00 in0.0 mm 0.00 in0.0 mm
02:45 AM 55.1°F12.8°C 51.0°F10.6°C 86% 1.2 mph NE1.9 kmh NE 2.3 mph3.7 kmh 30.14 in1020.7 mb - 0.00 in0.0 mm 0.00 in0.0 mm
02:50 AM 55.1°F12.8°C 51.0°F10.6°C 86% 1.2 mph NE1.9 kmh NE 3.5 mph5.6 kmh 30.14 in1020.7 mb - 0.00 in0.0 mm 0.00 in0.0 mm
02:55 AM 55.2°F12.9°C 51.7°F10.9°C 88% 1.2 mph NNE1.9 kmh NNE 2.3 mph3.7 kmh 30.13 in1020.3 mb - 0.00 in0.0 mm 0.00 in0.0 mm
03:00 AM 55.5°F13.1°C 52.0°F11.1°C 88% 1.2 mph NNE1.9 kmh NNE 3.5 mph5.6 kmh 30.13 in1020.3 mb - 0.00 in0.0 mm 0.00 in0.0 mm
03:10 AM 55.6°F13.1°C 52.4°F11.3°C 89% 2.3 mph NE3.7 kmh NE 3.5 mph5.6 kmh 30.13 in1020.3 mb - 0.00 in0.0 mm 0.00 in0.0 mm
03:15 AM 55.7°F13.2°C 52.9°F11.6°C 90% 2.3 mph NE3.7 kmh NE 2.3 mph3.7 kmh 30.13 in1020.3 mb - 0.00 in0.0 mm 0.00 in0.0 mm
03:20 AM 55.8°F13.2°C 52.9°F11.6°C 90% 1.2 mph NNE1.9 kmh NNE 2.3 mph3.7 kmh 30.13 in1020.3 mb - 0.00 in0.0 mm 0.00 in0.0 mm
03:25 AM 55.8°F13.2°C 52.9°F11.6°C 90% 2.3 mph N3.7 kmh N 3.5 mph5.6 kmh 30.12 in1020.0 mb - 0.00 in0.0 mm 0.00 in0.0 mm
03:30 AM 55.8°F13.2°C 52.9°F11.6°C 90% 2.3 mph N3.7 kmh N 3.5 mph5.6 kmh 30.12 in1020.0 mb - 0.00 in0.0 mm 0.00 in0.0 mm
03:35 AM 55.8°F13.2°C 52.9°F11.6°C 90% 2.3 mph NNE3.7 kmh NNE 3.5 mph5.6 kmh 30.12 in1020.0 mb - 0.00 in0.0 mm 0.00 in0.0 mm
03:40 AM 55.7°F13.2°C 52.8°F11.6°C 90% 2.3 mph N3.7 kmh N 4.6 mph7.4 kmh 30.11 in1019.6 mb - 0.00 in0.0 mm 0.00 in0.0 mm
03:45 AM 55.8°F13.2°C 52.9°F11.6°C 90% 2.3 mph NE3.7 kmh NE 3.5 mph5.6 kmh 30.11 in1019.6 mb - 0.00 in0.0 mm 0.00 in0.0 mm
03:50 AM 55.9°F13.3°C 53.0°F11.7°C 90% 2.3 mph NNE3.7 kmh NNE 3.5 mph5.6 kmh 30.11 in1019.6 mb - 0.00 in0.0 mm 0.00 in0.0 mm
03:55 AM 55.9°F13.3°C 53.0°F11.7°C 90% 2.3 mph NE3.7 kmh NE 3.5 mph5.6 kmh 30.11 in1019.6 mb - 0.00 in0.0 mm 0.00 in0.0 mm
04:00 AM 56.0°F13.3°C 53.1°F11.7°C 90% 2.3 mph NE3.7 kmh NE 3.5 mph5.6 kmh 30.11 in1019.6 mb - 0.00 in0.0 mm 0.00 in0.0 mm
04:10 AM 56.1°F13.4°C 52.9°F11.6°C 89% 2.3 mph NNE3.7 kmh NNE 3.5 mph5.6 kmh 30.11 in1019.6 mb - 0.00 in0.0 mm 0.00 in0.0 mm
04:15 AM 56.1°F13.4°C 52.9°F11.6°C 89% 2.3 mph NNE3.7 kmh NNE 2.3 mph3.7 kmh 30.11 in1019.6 mb - 0.00 in0.0 mm 0.00 in0.0 mm
04:20 AM 56.1°F13.4°C 52.9°F11.6°C 89% 2.3 mph NE3.7 kmh NE 3.5 mph5.6 kmh 30.11 in1019.6 mb - 0.00 in0.0 mm 0.00 in0.0 mm
04:25 AM 56.1°F13.4°C 52.9°F11.6°C 89% 2.3 mph NE3.7 kmh NE 3.5 mph5.6 kmh 30.11 in1019.6 mb - 0.00 in0.0 mm 0.00 in0.0 mm
04:30 AM 56.1°F13.4°C 52.9°F11.6°C 89% 1.2 mph NE1.9 kmh NE 2.3 mph3.7 kmh 30.11 in1019.6 mb - 0.00 in0.0 mm 0.00 in0.0 mm
04:35 AM 56.1°F13.4°C 52.6°F11.4°C 88% 1.2 mph NE1.9 kmh NE 3.5 mph5.6 kmh 30.11 in1019.6 mb - 0.00 in0.0 mm 0.00 in0.0 mm
04:40 AM 56.1°F13.4°C 52.6°F11.4°C 88% 2.3 mph NE3.7 kmh NE 3.5 mph5.6 kmh 30.11 in1019.6 mb - 0.00 in0.0 mm 0.00 in0.0 mm
04:45 AM 56.2°F13.4°C 52.7°F11.5°C 88% 2.3 mph NE3.7 kmh NE 3.5 mph5.6 kmh 30.11 in1019.6 mb - 0.00 in0.0 mm 0.00 in0.0 mm
04:50 AM 56.3°F13.5°C 52.5°F11.4°C 87% 2.3 mph NE3.7 kmh NE 3.5 mph5.6 kmh 30.10 in1019.3 mb - 0.00 in0.0 mm 0.00 in0.0 mm
04:55 AM 56.4°F13.6°C 52.6°F11.4°C 87% 2.3 mph NE3.7 kmh NE 3.5 mph5.6 kmh 30.11 in1019.6 mb - 0.00 in0.0 mm 0.00 in0.0 mm
05:00 AM 56.5°F13.6°C 52.6°F11.4°C 87% 1.2 mph NE1.9 kmh NE 2.3 mph3.7 kmh 30.10 in1019.3 mb - 0.00 in0.0 mm 0.00 in0.0 mm
05:10 AM 56.5°F13.6°C 52.4°F11.3°C 86% 2.3 mph NE3.7 kmh NE 4.6 mph7.4 kmh 30.10 in1019.3 mb - 0.00 in0.0 mm 0.00 in0.0 mm
05:15 AM 56.6°F13.7°C 52.5°F11.4°C 86% 2.3 mph NE3.7 kmh NE 3.5 mph5.6 kmh 30.10 in1019.3 mb - 0.00 in0.0 mm 0.00 in0.0 mm
05:20 AM 56.6°F13.7°C 52.4°F11.3°C 86% 2.3 mph NNE3.7 kmh NNE 4.6 mph7.4 kmh 30.10 in1019.3 mb - 0.00 in0.0 mm 0.00 in0.0 mm
05:25 AM 56.5°F13.6°C 52.0°F11.1°C 85% 2.3 mph NNE3.7 kmh NNE 3.5 mph5.6 kmh 30.10 in1019.3 mb - 0.00 in0.0 mm 0.00 in0.0 mm
05:30 AM 56.5°F13.6°C 52.1°F11.2°C 85% 2.3 mph NE3.7 kmh NE 3.5 mph5.6 kmh 30.10 in1019.3 mb - 0.00 in0.0 mm 0.00 in0.0 mm
05:35 AM 56.6°F13.7°C 52.1°F11.2°C 85% 2.3 mph NE3.7 kmh NE 3.5 mph5.6 kmh 30.10 in1019.3 mb - 0.00 in0.0 mm 0.00 in0.0 mm
05:40 AM 56.7°F13.7°C 52.2°F11.2°C 85% 2.3 mph NE3.7 kmh NE 3.5 mph5.6 kmh 30.10 in1019.3 mb - 0.00 in0.0 mm 0.00 in0.0 mm
05:45 AM 56.7°F13.7°C 52.2°F11.2°C 85% 2.3 mph NE3.7 kmh NE 3.5 mph5.6 kmh 30.10 in1019.3 mb - 0.00 in0.0 mm 0.00 in0.0 mm
05:50 AM 56.8°F13.8°C 52.4°F11.3°C 85% 2.3 mph ENE3.7 kmh ENE 3.5 mph5.6 kmh 30.10 in1019.3 mb - 0.00 in0.0 mm 0.00 in0.0 mm
05:55 AM 56.8°F13.8°C 52.3°F11.3°C 85% 3.5 mph NNE5.6 kmh NNE 3.5 mph5.6 kmh 30.10 in1019.3 mb - 0.00 in0.0 mm 0.00 in0.0 mm
06:00 AM 56.8°F13.8°C 52.3°F11.3°C 85% 3.5 mph NE5.6 kmh NE 3.5 mph5.6 kmh 30.09 in1019.0 mb - 0.00 in0.0 mm 0.00 in0.0 mm
06:10 AM 56.7°F13.7°C 52.6°F11.4°C 86% 1.2 mph NE1.9 kmh NE 3.5 mph5.6 kmh 30.09 in1019.0 mb - 0.00 in0.0 mm 0.00 in0.0 mm
06:15 AM 56.7°F13.7°C 52.2°F11.2°C 85% 3.5 mph NE5.6 kmh NE 3.5 mph5.6 kmh 30.09 in1019.0 mb - 0.00 in0.0 mm 0.00 in0.0 mm
06:20 AM 56.7°F13.7°C 52.2°F11.2°C 85% 2.3 mph NE3.7 kmh NE 3.5 mph5.6 kmh 30.09 in1019.0 mb - 0.00 in0.0 mm 0.00 in0.0 mm
06:25 AM 56.7°F13.7°C 52.6°F11.4°C 86% 1.2 mph NNE1.9 kmh NNE 3.5 mph5.6 kmh 30.08 in1018.6 mb - 0.00 in0.0 mm 0.00 in0.0 mm
06:30 AM 56.7°F13.7°C 52.6°F11.4°C 86% 3.5 mph NNE5.6 kmh NNE 4.6 mph7.4 kmh 30.09 in1019.0 mb - 0.00 in0.0 mm 0.00 in0.0 mm
06:35 AM 56.6°F13.7°C 52.5°F11.4°C 86% 2.3 mph NNE3.7 kmh NNE 4.6 mph7.4 kmh 30.08 in1018.6 mb - 0.00 in0.0 mm 0.00 in0.0 mm
06:40 AM 56.6°F13.7°C 52.5°F11.4°C 86% 3.5 mph NE5.6 kmh NE 6.9 mph11.1 kmh 30.08 in1018.6 mb - 0.00 in0.0 mm 0.00 in0.0 mm
06:45 AM 56.6°F13.7°C 52.5°F11.4°C 86% 3.5 mph NE5.6 kmh NE 4.6 mph7.4 kmh 30.08 in1018.6 mb - 0.00 in0.0 mm 0.00 in0.0 mm
06:50 AM 56.7°F13.7°C 52.6°F11.4°C 86% 2.3 mph NE3.7 kmh NE 3.5 mph5.6 kmh 30.08 in1018.6 mb - 0.00 in0.0 mm 0.00 in0.0 mm
06:55 AM 56.7°F13.7°C 52.6°F11.4°C 86% 2.3 mph NE3.7 kmh NE 3.5 mph5.6 kmh 30.08 in1018.6 mb - 0.00 in0.0 mm 0.00 in0.0 mm
07:00 AM 56.9°F13.8°C 52.4°F11.3°C 85% 2.3 mph NNE3.7 kmh NNE 3.5 mph5.6 kmh 30.08 in1018.6 mb - 0.00 in0.0 mm 0.00 in0.0 mm
07:10 AM 57.0°F13.9°C 52.5°F11.4°C 85% 4.6 mph NNE7.4 kmh NNE 6.9 mph11.1 kmh 30.07 in1018.3 mb - 0.00 in0.0 mm 0.00 in0.0 mm
07:15 AM 57.2°F14.0°C 52.7°F11.5°C 85% 3.5 mph NE5.6 kmh NE 4.6 mph7.4 kmh 30.08 in1018.6 mb - 0.00 in0.0 mm 0.00 in0.0 mm
07:20 AM 57.2°F14.0°C 52.7°F11.5°C 85% 4.6 mph NE7.4 kmh NE 4.6 mph7.4 kmh 30.07 in1018.3 mb - 0.00 in0.0 mm 0.00 in0.0 mm
07:25 AM 57.3°F14.1°C 52.9°F11.6°C 85% 2.3 mph NE3.7 kmh NE 4.6 mph7.4 kmh 30.07 in1018.3 mb - 0.00 in0.0 mm 0.00 in0.0 mm
07:30 AM 57.4°F14.1°C 52.9°F11.6°C 85% 2.3 mph NNE3.7 kmh NNE 3.5 mph5.6 kmh 30.07 in1018.3 mb - 0.00 in0.0 mm 0.00 in0.0 mm
07:35 AM 57.5°F14.2°C 53.3°F11.8°C 86% 3.5 mph NNE5.6 kmh NNE 5.8 mph9.3 kmh 30.07 in1018.3 mb - 0.00 in0.0 mm 0.00 in0.0 mm
07:40 AM 57.7°F14.3°C 53.5°F11.9°C 86% 3.5 mph NE5.6 kmh NE 4.6 mph7.4 kmh 30.07 in1018.3 mb - 0.00 in0.0 mm 0.00 in0.0 mm
07:45 AM 57.7°F14.3°C 53.2°F11.8°C 85% 5.8 mph NE9.3 kmh NE 9.2 mph14.8 kmh 30.07 in1018.3 mb - 0.00 in0.0 mm 0.00 in0.0 mm
07:50 AM 57.8°F14.3°C 53.4°F11.9°C 85% 4.6 mph NE7.4 kmh NE 8.1 mph13.0 kmh 30.07 in1018.3 mb - 0.00 in0.0 mm 0.00 in0.0 mm
07:55 AM 58.0°F14.4°C 53.2°F11.8°C 84% 4.6 mph NE7.4 kmh NE 8.1 mph13.0 kmh 30.07 in1018.3 mb - 0.00 in0.0 mm 0.00 in0.0 mm
08:00 AM 58.2°F14.6°C 53.4°F11.9°C 84% 5.8 mph NE9.3 kmh NE 9.2 mph14.8 kmh 30.07 in1018.3 mb - 0.00 in0.0 mm 0.00 in0.0 mm
08:10 AM 58.3°F14.6°C 53.2°F11.8°C 83% 3.5 mph NE5.6 kmh NE 4.6 mph7.4 kmh 30.07 in1018.3 mb - 0.00 in0.0 mm 0.00 in0.0 mm
08:15 AM 58.3°F14.6°C 53.1°F11.7°C 83% 3.5 mph NE5.6 kmh NE 3.5 mph5.6 kmh 30.07 in1018.3 mb - 0.00 in0.0 mm 0.00 in0.0 mm
08:20 AM 58.1°F14.5°C 53.0°F11.7°C 83% 3.5 mph NE5.6 kmh NE 4.6 mph7.4 kmh 30.07 in1018.3 mb - 0.00 in0.0 mm 0.00 in0.0 mm
08:25 AM 58.0°F14.4°C 53.2°F11.8°C 84% 3.5 mph NE5.6 kmh NE 5.8 mph9.3 kmh 30.07 in1018.3 mb - 0.00 in0.0 mm 0.00 in0.0 mm
08:30 AM 57.9°F14.4°C 53.4°F11.9°C 85% 4.6 mph NE7.4 kmh NE 4.6 mph7.4 kmh 30.06 in1017.9 mb - 0.00 in0.0 mm 0.00 in0.0 mm
08:35 AM 57.9°F14.4°C 53.1°F11.7°C 84% 3.5 mph NE5.6 kmh NE 9.2 mph14.8 kmh 30.06 in1017.9 mb - 0.00 in0.0 mm 0.00 in0.0 mm
08:40 AM 58.1°F14.5°C 53.3°F11.8°C 84% 3.5 mph NE5.6 kmh NE 9.2 mph14.8 kmh 30.06 in1017.9 mb - 0.00 in0.0 mm 0.00 in0.0 mm
08:45 AM 58.1°F14.5°C 53.3°F11.8°C 84% 2.3 mph ENE3.7 kmh ENE 3.5 mph5.6 kmh 30.06 in1017.9 mb - 0.00 in0.0 mm 0.00 in0.0 mm
08:50 AM 58.1°F14.5°C 53.3°F11.8°C 84% 2.3 mph NE3.7 kmh NE 5.8 mph9.3 kmh 30.06 in1017.9 mb - 0.00 in0.0 mm 0.00 in0.0 mm
08:55 AM 57.9°F14.4°C 53.1°F11.7°C 84% 2.3 mph NE3.7 kmh NE 3.5 mph5.6 kmh 30.06 in1017.9 mb - 0.00 in0.0 mm 0.00 in0.0 mm
09:00 AM 57.8°F14.3°C 53.3°F11.8°C 85% 3.5 mph NE5.6 kmh NE 5.8 mph9.3 kmh 30.06 in1017.9 mb - 0.00 in0.0 mm 0.00 in0.0 mm
09:10 AM 57.6°F14.2°C 53.1°F11.7°C 85% 2.3 mph ENE3.7 kmh ENE 6.9 mph11.1 kmh 30.06 in1017.9 mb - 0.00 in0.0 mm 0.00 in0.0 mm
09:15 AM 57.4°F14.1°C 53.2°F11.8°C 86% 2.3 mph NE3.7 kmh NE 4.6 mph7.4 kmh 30.06 in1017.9 mb - 0.01 in0.3 mm 0.01 in0.3 mm
09:20 AM 57.2°F14.0°C 53.0°F11.7°C 86% 2.3 mph ENE3.7 kmh ENE 3.5 mph5.6 kmh 30.07 in1018.3 mb - 0.01 in0.3 mm 0.01 in0.3 mm
09:25 AM 57.0°F13.9°C 52.8°F11.6°C 86% 3.5 mph ENE5.6 kmh ENE 5.8 mph9.3 kmh 30.06 in1017.9 mb - 0.01 in0.3 mm 0.01 in0.3 mm
09:30 AM 56.9°F13.8°C 52.7°F11.5°C 86% 4.6 mph ENE7.4 kmh ENE 8.1 mph13.0 kmh 30.06 in1017.9 mb - 0.02 in0.5 mm 0.02 in0.5 mm
09:35 AM 56.8°F13.8°C 52.6°F11.4°C 86% 3.5 mph E5.6 kmh E 4.6 mph7.4 kmh 30.06 in1017.9 mb - 0.02 in0.5 mm 0.02 in0.5 mm
09:40 AM 56.7°F13.7°C 52.9°F11.6°C 87% 2.3 mph ENE3.7 kmh ENE 8.1 mph13.0 kmh 30.06 in1017.9 mb - 0.03 in0.8 mm 0.03 in0.8 mm
09:45 AM 56.5°F13.6°C 52.4°F11.3°C 86% 4.6 mph ENE7.4 kmh ENE 8.1 mph13.0 kmh 30.06 in1017.9 mb - 0.03 in0.8 mm 0.03 in0.8 mm
09:50 AM 56.4°F13.6°C 52.3°F11.3°C 86% 3.5 mph ENE5.6 kmh ENE 9.2 mph14.8 kmh 30.06 in1017.9 mb - 0.04 in1.0 mm 0.04 in1.0 mm
09:55 AM 56.3°F13.5°C 52.1°F11.2°C 86% 3.5 mph NE5.6 kmh NE 4.6 mph7.4 kmh 30.07 in1018.3 mb - 0.04 in1.0 mm 0.04 in1.0 mm
10:00 AM 56.2°F13.4°C 52.3°F11.3°C 87% 3.5 mph ENE5.6 kmh ENE 9.2 mph14.8 kmh 30.06 in1017.9 mb - 0.04 in1.0 mm 0.04 in1.0 mm
10:10 AM 56.1°F13.4°C 52.3°F11.3°C 87% 4.6 mph NE7.4 kmh NE 6.9 mph11.1 kmh 30.06 in1017.9 mb - 0.05 in1.3 mm 0.05 in1.3 mm
10:15 AM 56.2°F13.4°C 52.4°F11.3°C 87% 3.5 mph ENE5.6 kmh ENE 5.8 mph9.3 kmh 30.06 in1017.9 mb - 0.05 in1.3 mm 0.06 in1.5 mm
10:20 AM 56.3°F13.5°C 52.5°F11.4°C 87% 3.5 mph ENE5.6 kmh ENE 3.5 mph5.6 kmh 30.06 in1017.9 mb - 0.05 in1.3 mm 0.06 in1.5 mm
10:25 AM 56.4°F13.6°C 52.6°F11.4°C 87% 3.5 mph NE5.6 kmh NE 5.8 mph9.3 kmh 30.06 in1017.9 mb - 0.05 in1.3 mm 0.06 in1.5 mm
10:30 AM 56.4°F13.6°C 52.3°F11.3°C 86% 3.5 mph NE5.6 kmh NE 8.1 mph13.0 kmh 30.06 in1017.9 mb - 0.05 in1.3 mm 0.06 in1.5 mm
10:35 AM 56.4°F13.6°C 52.3°F11.3°C 86% 4.6 mph NE7.4 kmh NE 6.9 mph11.1 kmh 30.06 in1017.9 mb - 0.04 in1.0 mm 0.06 in1.5 mm
10:40 AM 56.5°F13.6°C 52.4°F11.3°C 86% 3.5 mph NE5.6 kmh NE 5.8 mph9.3 kmh 30.06 in1017.9 mb - 0.02 in0.5 mm 0.06 in1.5 mm
10:45 AM 56.5°F13.6°C 52.4°F11.3°C 86% 5.8 mph NE9.3 kmh NE 9.2 mph14.8 kmh 30.06 in1017.9 mb - 0.02 in0.5 mm 0.06 in1.5 mm
10:50 AM 56.4°F13.6°C 52.3°F11.3°C 86% 3.5 mph NNE5.6 kmh NNE 4.6 mph7.4 kmh 30.06 in1017.9 mb - 0.02 in0.5 mm 0.06 in1.5 mm
10:55 AM 56.5°F13.6°C 52.3°F11.3°C 86% 2.3 mph NNE3.7 kmh NNE 3.5 mph5.6 kmh 30.06 in1017.9 mb - 0.02 in0.5 mm 0.06 in1.5 mm
11:00 AM 56.5°F13.6°C 52.7°F11.5°C 87% 2.3 mph NE3.7 kmh NE 3.5 mph5.6 kmh 30.06 in1017.9 mb - 0.02 in0.5 mm 0.06 in1.5 mm
11:10 AM 56.8°F13.8°C 52.6°F11.4°C 86% 3.5 mph NE5.6 kmh NE 10.4 mph16.7 kmh 30.06 in1017.9 mb - 0.01 in0.3 mm 0.06 in1.5 mm
11:15 AM 56.9°F13.8°C 52.8°F11.6°C 86% 4.6 mph NE7.4 kmh NE 6.9 mph11.1 kmh 30.06 in1017.9 mb - 0.01 in0.3 mm 0.06 in1.5 mm
11:20 AM 57.2°F14.0°C 53.4°F11.9°C 87% 3.5 mph NE5.6 kmh NE 5.8 mph9.3 kmh 30.06 in1017.9 mb - 0.02 in0.5 mm 0.07 in1.8 mm
11:25 AM 57.3°F14.1°C 53.2°F11.8°C 86% 4.6 mph NE7.4 kmh NE 11.5 mph18.5 kmh 30.06 in1017.9 mb - 0.02 in0.5 mm 0.07 in1.8 mm
11:30 AM 57.4°F14.1°C 53.3°F11.8°C 86% 4.6 mph NE7.4 kmh NE 5.8 mph9.3 kmh 30.06 in1017.9 mb - 0.02 in0.5 mm 0.07 in1.8 mm
11:35 AM 57.4°F14.1°C 53.2°F11.8°C 86% 4.6 mph NNE7.4 kmh NNE 6.9 mph11.1 kmh 30.05 in1017.6 mb - 0.02 in0.5 mm 0.07 in1.8 mm
11:40 AM 57.4°F14.1°C 53.2°F11.8°C 86% 4.6 mph ENE7.4 kmh ENE 6.9 mph11.1 kmh 30.05 in1017.6 mb - 0.02 in0.5 mm 0.07 in1.8 mm
11:45 AM 57.6°F14.2°C 53.4°F11.9°C 86% 4.6 mph NE7.4 kmh NE 9.2 mph14.8 kmh 30.05 in1017.6 mb - 0.02 in0.5 mm 0.07 in1.8 mm
11:50 AM 57.6°F14.2°C 53.4°F11.9°C 86% 4.6 mph NE7.4 kmh NE 8.1 mph13.0 kmh 30.05 in1017.6 mb - 0.02 in0.5 mm 0.07 in1.8 mm
11:55 AM 57.6°F14.2°C 53.4°F11.9°C 86% 4.6 mph NE7.4 kmh NE 10.4 mph16.7 kmh 30.05 in1017.6 mb - 0.02 in0.5 mm 0.07 in1.8 mm
12:00 PM 57.9°F14.4°C 53.4°F11.9°C 85% 5.8 mph NE9.3 kmh NE 6.9 mph11.1 kmh 30.05 in1017.6 mb - 0.02 in0.5 mm 0.07 in1.8 mm
12:10 PM 57.7°F14.3°C 53.2°F11.8°C 85% 4.6 mph NNE7.4 kmh NNE 11.5 mph18.5 kmh 30.04 in1017.3 mb - 0.02 in0.5 mm 0.07 in1.8 mm
12:15 PM 57.6°F14.2°C 53.1°F11.7°C 85% 5.8 mph NE9.3 kmh NE 10.4 mph16.7 kmh 30.04 in1017.3 mb - 0.01 in0.3 mm 0.07 in1.8 mm
12:20 PM 57.6°F14.2°C 52.8°F11.6°C 84% 6.9 mph NE11.1 kmh NE 12.7 mph20.4 kmh 30.04 in1017.3 mb - 0.01 in0.3 mm 0.07 in1.8 mm
12:25 PM 57.7°F14.3°C 53.2°F11.8°C 85% 5.8 mph NNE9.3 kmh NNE 11.5 mph18.5 kmh 30.04 in1017.3 mb - 0.00 in0.0 mm 0.07 in1.8 mm
12:30 PM 57.9°F14.4°C 53.4°F11.9°C 85% 4.6 mph NE7.4 kmh NE 10.4 mph16.7 kmh 30.04 in1017.3 mb - 0.00 in0.0 mm 0.07 in1.8 mm
12:35 PM 58.2°F14.6°C 53.4°F11.9°C 84% 6.9 mph NNE11.1 kmh NNE 11.5 mph18.5 kmh 30.03 in1016.9 mb - 0.00 in0.0 mm 0.07 in1.8 mm
12:40 PM 58.2°F14.6°C 53.1°F11.7°C 83% 6.9 mph NE11.1 kmh NE 11.5 mph18.5 kmh 30.03 in1016.9 mb - 0.00 in0.0 mm 0.07 in1.8 mm
12:45 PM 58.4°F14.7°C 53.3°F11.8°C 83% 8.1 mph NNE13.0 kmh NNE 11.5 mph18.5 kmh 30.03 in1016.9 mb - 0.00 in0.0 mm 0.07 in1.8 mm
12:50 PM 58.4°F14.7°C 53.3°F11.8°C 83% 8.1 mph NE13.0 kmh NE 11.5 mph18.5 kmh 30.03 in1016.9 mb - 0.00 in0.0 mm 0.07 in1.8 mm
12:55 PM 58.5°F14.7°C 53.0°F11.7°C 82% 9.2 mph NE14.8 kmh NE 11.5 mph18.5 kmh 30.03 in1016.9 mb - 0.00 in0.0 mm 0.07 in1.8 mm
01:00 PM 58.5°F14.7°C 53.1°F11.7°C 82% 6.9 mph NE11.1 kmh NE 9.2 mph14.8 kmh 30.03 in1016.9 mb - 0.00 in0.0 mm 0.07 in1.8 mm
01:10 PM 58.7°F14.8°C 53.2°F11.8°C 82% 8.1 mph NE13.0 kmh NE 11.5 mph18.5 kmh 30.03 in1016.9 mb - 0.00 in0.0 mm 0.07 in1.8 mm
01:15 PM 58.5°F14.7°C 53.4°F11.9°C 83% 8.1 mph NE13.0 kmh NE 12.7 mph20.4 kmh 30.04 in1017.3 mb - 0.00 in0.0 mm 0.07 in1.8 mm
01:20 PM 58.5°F14.7°C 53.6°F12.0°C 84% 6.9 mph NE11.1 kmh NE 10.4 mph16.7 kmh 30.03 in1016.9 mb - 0.00 in0.0 mm 0.07 in1.8 mm
01:25 PM 58.4°F14.7°C 53.2°F11.8°C 83% 5.8 mph NE9.3 kmh NE 11.5 mph18.5 kmh 30.03 in1016.9 mb - 0.00 in0.0 mm 0.07 in1.8 mm
01:30 PM 58.2°F14.6°C 53.1°F11.7°C 83% 6.9 mph NE11.1 kmh NE 11.5 mph18.5 kmh 30.03 in1016.9 mb - 0.00 in0.0 mm 0.07 in1.8 mm
01:35 PM 58.1°F14.5°C 53.0°F11.7°C 83% 8.1 mph NE13.0 kmh NE 13.8 mph22.2 kmh 30.03 in1016.9 mb - 0.00 in0.0 mm 0.07 in1.8 mm
01:40 PM 58.0°F14.4°C 52.9°F11.6°C 83% 9.2 mph NE14.8 kmh NE 15.0 mph24.1 kmh 30.02 in1016.6 mb - 0.00 in0.0 mm 0.07 in1.8 mm
01:45 PM 58.0°F14.4°C 52.8°F11.6°C 83% 6.9 mph NE11.1 kmh NE 11.5 mph18.5 kmh 30.02 in1016.6 mb - 0.00 in0.0 mm 0.07 in1.8 mm
01:50 PM 58.0°F14.4°C 52.9°F11.6°C 83% 6.9 mph NE11.1 kmh NE 11.5 mph18.5 kmh 30.02 in1016.6 mb - 0.00 in0.0 mm 0.07 in1.8 mm
01:55 PM 58.1°F14.5°C 53.0°F11.7°C 83% 8.1 mph NE13.0 kmh NE 11.5 mph18.5 kmh 30.02 in1016.6 mb - 0.00 in0.0 mm 0.07 in1.8 mm
02:00 PM 58.2°F14.6°C 53.1°F11.7°C 83% 5.8 mph NE9.3 kmh NE 9.2 mph14.8 kmh 30.02 in1016.6 mb - 0.00 in0.0 mm 0.07 in1.8 mm
02:10 PM 58.4°F14.7°C 52.9°F11.6°C 82% 8.1 mph NE13.0 kmh NE 10.4 mph16.7 kmh 30.01 in1016.3 mb - 0.00 in0.0 mm 0.07 in1.8 mm
02:15 PM 58.7°F14.8°C 53.5°F11.9°C 83% 6.9 mph NE11.1 kmh NE 11.5 mph18.5 kmh 30.01 in1016.3 mb - 0.00 in0.0 mm 0.07 in1.8 mm
02:20 PM 59.1°F15.1°C 53.6°F12.0°C 82% 6.9 mph NE11.1 kmh NE 9.2 mph14.8 kmh 30.00 in1015.9 mb - 0.00 in0.0 mm 0.07 in1.8 mm
02:25 PM 59.5°F15.3°C 54.0°F12.2°C 82% 8.1 mph NNE13.0 kmh NNE 10.4 mph16.7 kmh 30.00 in1015.9 mb - 0.00 in0.0 mm 0.07 in1.8 mm
02:30 PM 59.6°F15.3°C 54.1°F12.3°C 82% 5.8 mph NE9.3 kmh NE 9.2 mph14.8 kmh 30.00 in1015.9 mb - 0.00 in0.0 mm 0.07 in1.8 mm
02:35 PM 59.7°F15.4°C 53.8°F12.1°C 81% 4.6 mph NE7.4 kmh NE 6.9 mph11.1 kmh 30.00 in1015.9 mb - 0.00 in0.0 mm 0.07 in1.8 mm
02:40 PM 59.3°F15.2°C 53.5°F11.9°C 81% 8.1 mph NE13.0 kmh NE 12.7 mph20.4 kmh 30.00 in1015.9 mb - 0.00 in0.0 mm 0.07 in1.8 mm
02:45 PM 59.2°F15.1°C 53.7°F12.1°C 82% 9.2 mph NE14.8 kmh NE 16.1 mph25.9 kmh 30.01 in1016.3 mb - 0.00 in0.0 mm 0.07 in1.8 mm
02:50 PM 58.9°F14.9°C 53.1°F11.7°C 81% 6.9 mph NE11.1 kmh NE 12.7 mph20.4 kmh 30.01 in1016.3 mb - 0.00 in0.0 mm 0.07 in1.8 mm
02:55 PM 58.8°F14.9°C 53.0°F11.7°C 81% 8.1 mph NE13.0 kmh NE 11.5 mph18.5 kmh 30.01 in1016.3 mb - 0.00 in0.0 mm 0.07 in1.8 mm
03:00 PM 58.7°F14.8°C 52.9°F11.6°C 81% 5.8 mph NE9.3 kmh NE 9.2 mph14.8 kmh 30.01 in1016.3 mb - 0.00 in0.0 mm 0.07 in1.8 mm
03:10 PM 58.8°F14.9°C 52.6°F11.4°C 80% 6.9 mph NE11.1 kmh NE 12.7 mph20.4 kmh 30.00 in1015.9 mb - 0.00 in0.0 mm 0.07 in1.8 mm
03:15 PM 58.8°F14.9°C 52.6°F11.4°C 80% 5.8 mph NE9.3 kmh NE 11.5 mph18.5 kmh 30.00 in1015.9 mb - 0.00 in0.0 mm 0.07 in1.8 mm
03:20 PM 58.9°F14.9°C 52.7°F11.5°C 80% 5.8 mph NE9.3 kmh NE 11.5 mph18.5 kmh 30.01 in1016.3 mb - 0.00 in0.0 mm 0.07 in1.8 mm
03:25 PM 58.9°F14.9°C 52.7°F11.5°C 80% 8.1 mph NE13.0 kmh NE 10.4 mph16.7 kmh 30.01 in1016.3 mb - 0.00 in0.0 mm 0.07 in1.8 mm
03:30 PM 58.9°F14.9°C 53.1°F11.7°C 81% 6.9 mph NE11.1 kmh NE 11.5 mph18.5 kmh 30.00 in1015.9 mb - 0.00 in0.0 mm 0.07 in1.8 mm
03:35 PM 59.1°F15.1°C 53.3°F11.8°C 81% 4.6 mph NE7.4 kmh NE 9.2 mph14.8 kmh 30.00 in1015.9 mb - 0.00 in0.0 mm 0.07 in1.8 mm
03:40 PM 59.3°F15.2°C 53.1°F11.7°C 80% 4.6 mph NE7.4 kmh NE 5.8 mph9.3 kmh 30.01 in1016.3 mb - 0.00 in0.0 mm 0.07 in1.8 mm
03:45 PM 59.3°F15.2°C 53.1°F11.7°C 80% 6.9 mph NE11.1 kmh NE 10.4 mph16.7 kmh 30.00 in1015.9 mb - 0.00 in0.0 mm 0.07 in1.8 mm
03:50 PM 59.3°F15.2°C 53.1°F11.7°C 80% 6.9 mph NE11.1 kmh NE 9.2 mph14.8 kmh 30.00 in1015.9 mb - 0.00 in0.0 mm 0.07 in1.8 mm
03:55 PM 59.5°F15.3°C 53.3°F11.8°C 80% 5.8 mph NE9.3 kmh NE 9.2 mph14.8 kmh 30.00 in1015.9 mb - 0.00 in0.0 mm 0.07 in1.8 mm
04:00 PM 59.6°F15.3°C 53.4°F11.9°C 80% 6.9 mph NE11.1 kmh NE 8.1 mph13.0 kmh 30.00 in1015.9 mb - 0.00 in0.0 mm 0.07 in1.8 mm
04:10 PM 59.8°F15.4°C 53.6°F12.0°C 80% 6.9 mph NE11.1 kmh NE 12.7 mph20.4 kmh 29.99 in1015.6 mb - 0.00 in0.0 mm 0.07 in1.8 mm
04:15 PM 59.9°F15.5°C 54.1°F12.3°C 81% 5.8 mph NE9.3 kmh NE 11.5 mph18.5 kmh 30.00 in1015.9 mb - 0.00 in0.0 mm 0.07 in1.8 mm
04:20 PM 59.9°F15.5°C 54.0°F12.2°C 81% 4.6 mph NNE7.4 kmh NNE 12.7 mph20.4 kmh 30.00 in1015.9 mb - 0.00 in0.0 mm 0.07 in1.8 mm
04:25 PM 59.9°F15.5°C 53.7°F12.1°C 80% 8.1 mph NE13.0 kmh NE 11.5 mph18.5 kmh 30.00 in1015.9 mb - 0.00 in0.0 mm 0.07 in1.8 mm
04:30 PM 59.7°F15.4°C 53.5°F11.9°C 80% 8.1 mph NE13.0 kmh NE 9.2 mph14.8 kmh 29.99 in1015.6 mb - 0.00 in0.0 mm 0.07 in1.8 mm
04:35 PM 59.7°F15.4°C 53.9°F12.2°C 81% 5.8 mph NE9.3 kmh NE 10.4 mph16.7 kmh 29.99 in1015.6 mb - 0.00 in0.0 mm 0.07 in1.8 mm
04:40 PM 59.8°F15.4°C 53.9°F12.2°C 81% 5.8 mph NE9.3 kmh NE 11.5 mph18.5 kmh 29.99 in1015.6 mb - 0.00 in0.0 mm 0.07 in1.8 mm
04:45 PM 59.9°F15.5°C 54.0°F12.2°C 81% 6.9 mph NE11.1 kmh NE 12.7 mph20.4 kmh 29.99 in1015.6 mb - 0.00 in0.0 mm 0.07 in1.8 mm
04:50 PM 59.9°F15.5°C 54.0°F12.2°C 81% 5.8 mph NE9.3 kmh NE 9.2 mph14.8 kmh 29.99 in1015.6 mb - 0.00 in0.0 mm 0.07 in1.8 mm
04:55 PM 59.8°F15.4°C 54.0°F12.2°C 81% 6.9 mph NE11.1 kmh NE 11.5 mph18.5 kmh 29.98 in1015.2 mb - 0.00 in0.0 mm 0.07 in1.8 mm
05:00 PM 59.8°F15.4°C 54.0°F12.2°C 81% 5.8 mph NE9.3 kmh NE 10.4 mph16.7 kmh 29.98 in1015.2 mb - 0.00 in0.0 mm 0.07 in1.8 mm
05:10 PM 59.8°F15.4°C 54.3°F12.4°C 82% 5.8 mph NE9.3 kmh NE 9.2 mph14.8 kmh 29.98 in1015.2 mb - 0.00 in0.0 mm 0.07 in1.8 mm
05:15 PM 59.8°F15.4°C 54.0°F12.2°C 81% 6.9 mph NE11.1 kmh NE 8.1 mph13.0 kmh 29.98 in1015.2 mb - 0.00 in0.0 mm 0.07 in1.8 mm
05:20 PM 59.9°F15.5°C 54.4°F12.4°C 82% 4.6 mph NE7.4 kmh NE 6.9 mph11.1 kmh 29.98 in1015.2 mb - 0.00 in0.0 mm 0.07 in1.8 mm
05:25 PM 60.0°F15.6°C 54.2°F12.3°C 81% 5.8 mph NNE9.3 kmh NNE 11.5 mph18.5 kmh 29.98 in1015.2 mb - 0.00 in0.0 mm 0.07 in1.8 mm
05:30 PM 60.2°F15.7°C 54.3°F12.4°C 81% 4.6 mph NE7.4 kmh NE 6.9 mph11.1 kmh 29.98 in1015.2 mb - 0.00 in0.0 mm 0.07 in1.8 mm
05:35 PM 60.2°F15.7°C 54.3°F12.4°C 81% 6.9 mph NE11.1 kmh NE 11.5 mph18.5 kmh 29.97 in1014.9 mb - 0.00 in0.0 mm 0.07 in1.8 mm
05:40 PM 60.2°F15.7°C 54.3°F12.4°C 81% 5.8 mph NE9.3 kmh NE 11.5 mph18.5 kmh 29.97 in1014.9 mb - 0.00 in0.0 mm 0.07 in1.8 mm
05:45 PM 60.0°F15.6°C 54.5°F12.5°C 82% 5.8 mph NE9.3 kmh NE 12.7 mph20.4 kmh 29.97 in1014.9 mb - 0.00 in0.0 mm 0.07 in1.8 mm
05:50 PM 59.8°F15.4°C 54.0°F12.2°C 81% 5.8 mph NE9.3 kmh NE 8.1 mph13.0 kmh 29.97 in1014.9 mb - 0.00 in0.0 mm 0.07 in1.8 mm
05:55 PM 59.7°F15.4°C 54.2°F12.3°C 82% 8.1 mph NE13.0 kmh NE 10.4 mph16.7 kmh 29.97 in1014.9 mb - 0.00 in0.0 mm 0.07 in1.8 mm
06:00 PM 59.5°F15.3°C 54.0°F12.2°C 82% 4.6 mph NE7.4 kmh NE 6.9 mph11.1 kmh 29.97 in1014.9 mb - 0.00 in0.0 mm 0.07 in1.8 mm
06:10 PM 59.4°F15.2°C 53.9°F12.2°C 82% 5.8 mph NNE9.3 kmh NNE 9.2 mph14.8 kmh 29.96 in1014.6 mb - 0.00 in0.0 mm 0.07 in1.8 mm
06:15 PM 59.2°F15.1°C 54.0°F12.2°C 83% 6.9 mph NE11.1 kmh NE 13.8 mph22.2 kmh 29.96 in1014.6 mb - 0.00 in0.0 mm 0.07 in1.8 mm
06:20 PM 59.2°F15.1°C 54.0°F12.2°C 83% 5.8 mph NE9.3 kmh NE 11.5 mph18.5 kmh 29.96 in1014.6 mb - 0.00 in0.0 mm 0.07 in1.8 mm
06:25 PM 59.2°F15.1°C 54.1°F12.3°C 83% 4.6 mph NE7.4 kmh NE 9.2 mph14.8 kmh 29.96 in1014.6 mb - 0.00 in0.0 mm 0.07 in1.8 mm
06:30 PM 59.5°F15.3°C 54.4°F12.4°C 83% 4.6 mph NE7.4 kmh NE 5.8 mph9.3 kmh 29.96 in1014.6 mb - 0.00 in0.0 mm 0.07 in1.8 mm
06:35 PM 60.1°F15.6°C 54.9°F12.7°C 83% 4.6 mph NE7.4 kmh NE 10.4 mph16.7 kmh 29.96 in1014.6 mb - 0.00 in0.0 mm 0.07 in1.8 mm
06:40 PM 60.8°F16.0°C 55.3°F12.9°C 82% 5.8 mph NE9.3 kmh NE 12.7 mph20.4 kmh 29.96 in1014.6 mb - 0.00 in0.0 mm 0.07 in1.8 mm
06:45 PM 61.0°F16.1°C 55.1°F12.8°C 81% 5.8 mph NE9.3 kmh NE 9.2 mph14.8 kmh 29.96 in1014.6 mb - 0.00 in0.0 mm 0.07 in1.8 mm
06:50 PM 61.0°F16.1°C 55.1°F12.8°C 81% 4.6 mph NE7.4 kmh NE 9.2 mph14.8 kmh 29.96 in1014.6 mb - 0.00 in0.0 mm 0.07 in1.8 mm
06:55 PM 60.9°F16.1°C 55.0°F12.8°C 81% 6.9 mph NE11.1 kmh NE 10.4 mph16.7 kmh 29.96 in1014.6 mb - 0.00 in0.0 mm 0.07 in1.8 mm
07:00 PM 60.6°F15.9°C 55.1°F12.8°C 82% 4.6 mph NE7.4 kmh NE 11.5 mph18.5 kmh 29.96 in1014.6 mb - 0.00 in0.0 mm 0.07 in1.8 mm
07:10 PM 60.3°F15.7°C 54.7°F12.6°C 82% 4.6 mph NNE7.4 kmh NNE 5.8 mph9.3 kmh 29.96 in1014.6 mb - 0.00 in0.0 mm 0.07 in1.8 mm
07:15 PM 60.1°F15.6°C 54.6°F12.6°C 82% 4.6 mph NE7.4 kmh NE 8.1 mph13.0 kmh 29.96 in1014.6 mb - 0.00 in0.0 mm 0.07 in1.8 mm
07:20 PM 60.0°F15.6°C 54.8°F12.7°C 83% 3.5 mph NE5.6 kmh NE 5.8 mph9.3 kmh 29.96 in1014.6 mb - 0.00 in0.0 mm 0.07 in1.8 mm
07:25 PM 60.1°F15.6°C 54.9°F12.7°C 83% 5.8 mph NE9.3 kmh NE 6.9 mph11.1 kmh 29.96 in1014.6 mb - 0.00 in0.0 mm 0.07 in1.8 mm
07:30 PM 60.3°F15.7°C 55.1°F12.8°C 83% 4.6 mph NE7.4 kmh NE 5.8 mph9.3 kmh 29.96 in1014.6 mb - 0.00 in0.0 mm 0.07 in1.8 mm
07:35 PM 60.3°F15.7°C 54.8°F12.7°C 82% 3.5 mph NE5.6 kmh NE 5.8 mph9.3 kmh 29.96 in1014.6 mb - 0.00 in0.0 mm 0.07 in1.8 mm
07:40 PM 60.2°F15.7°C 54.7°F12.6°C 82% 5.8 mph NE9.3 kmh NE 11.5 mph18.5 kmh 29.96 in1014.6 mb - 0.00 in0.0 mm 0.07 in1.8 mm
07:45 PM 59.9°F15.5°C 54.7°F12.6°C 83% 5.8 mph NE9.3 kmh NE 10.4 mph16.7 kmh 29.96 in1014.6 mb - 0.00 in0.0 mm 0.07 in1.8 mm
07:50 PM 59.7°F15.4°C 54.5°F12.5°C 83% 4.6 mph NE7.4 kmh NE 5.8 mph9.3 kmh 29.96 in1014.6 mb - 0.00 in0.0 mm 0.07 in1.8 mm
07:55 PM 59.5°F15.3°C 54.4°F12.4°C 83% 4.6 mph NE7.4 kmh NE 9.2 mph14.8 kmh 29.96 in1014.6 mb - 0.00 in0.0 mm 0.07 in1.8 mm
08:00 PM 59.4°F15.2°C 54.3°F12.4°C 83% 4.6 mph NE7.4 kmh NE 5.8 mph9.3 kmh 29.96 in1014.6 mb - 0.00 in0.0 mm 0.07 in1.8 mm
08:10 PM 59.2°F15.1°C 54.4°F12.4°C 84% 5.8 mph NE9.3 kmh NE 11.5 mph18.5 kmh 29.95 in1014.2 mb - 0.00 in0.0 mm 0.07 in1.8 mm
08:15 PM 59.2°F15.1°C 54.3°F12.4°C 84% 5.8 mph NE9.3 kmh NE 9.2 mph14.8 kmh 29.95 in1014.2 mb - 0.00 in0.0 mm 0.07 in1.8 mm
08:20 PM 59.1°F15.1°C 54.3°F12.4°C 84% 4.6 mph NE7.4 kmh NE 11.5 mph18.5 kmh 29.95 in1014.2 mb - 0.00 in0.0 mm 0.07 in1.8 mm
08:25 PM 59.0°F15.0°C 54.5°F12.5°C 85% 4.6 mph NE7.4 kmh NE 11.5 mph18.5 kmh 29.95 in1014.2 mb - 0.00 in0.0 mm 0.07 in1.8 mm
08:30 PM 58.9°F14.9°C 54.4°F12.4°C 85% 4.6 mph NE7.4 kmh NE 8.1 mph13.0 kmh 29.95 in1014.2 mb - 0.00 in0.0 mm 0.07 in1.8 mm
08:35 PM 58.9°F14.9°C 54.4°F12.4°C 85% 6.9 mph NE11.1 kmh NE 10.4 mph16.7 kmh 29.96 in1014.6 mb - 0.00 in0.0 mm 0.07 in1.8 mm
08:40 PM 58.9°F14.9°C 54.4°F12.4°C 85% 4.6 mph NE7.4 kmh NE 8.1 mph13.0 kmh 29.96 in1014.6 mb - 0.00 in0.0 mm 0.07 in1.8 mm
08:45 PM 58.9°F14.9°C 54.4°F12.4°C 85% 4.6 mph NE7.4 kmh NE 9.2 mph14.8 kmh 29.96 in1014.6 mb - 0.00 in0.0 mm 0.07 in1.8 mm
08:50 PM 59.0°F15.0°C 54.4°F12.4°C 85% 4.6 mph NE7.4 kmh NE 9.2 mph14.8 kmh 29.95 in1014.2 mb - 0.00 in0.0 mm 0.07 in1.8 mm
08:55 PM 59.0°F15.0°C 54.5°F12.5°C 85% 4.6 mph NE7.4 kmh NE 8.1 mph13.0 kmh 29.95 in1014.2 mb - 0.00 in0.0 mm 0.07 in1.8 mm
09:00 PM 59.0°F15.0°C 54.2°F12.3°C 84% 5.8 mph NE9.3 kmh NE 10.4 mph16.7 kmh 29.95 in1014.2 mb - 0.00 in0.0 mm 0.07 in1.8 mm
09:10 PM 59.1°F15.1°C 54.2°F12.3°C 84% 4.6 mph NE7.4 kmh NE 9.2 mph14.8 kmh 29.95 in1014.2 mb - 0.00 in0.0 mm 0.07 in1.8 mm
09:15 PM 59.0°F15.0°C 54.2°F12.3°C 84% 5.8 mph NE9.3 kmh NE 9.2 mph14.8 kmh 29.95 in1014.2 mb - 0.00 in0.0 mm 0.07 in1.8 mm
09:20 PM 59.0°F15.0°C 54.5°F12.5°C 85% 5.8 mph NNE9.3 kmh NNE 10.4 mph16.7 kmh 29.95 in1014.2 mb - 0.00 in0.0 mm 0.07 in1.8 mm
09:25 PM 58.9°F14.9°C 54.4°F12.4°C 85% 6.9 mph NNE11.1 kmh NNE 9.2 mph14.8 kmh 29.95 in1014.2 mb - 0.00 in0.0 mm 0.07 in1.8 mm
09:30 PM 58.8°F14.9°C 54.3°F12.4°C 85% 6.9 mph NNE11.1 kmh NNE 11.5 mph18.5 kmh 29.94 in1013.9 mb - 0.00 in0.0 mm 0.07 in1.8 mm
09:35 PM 58.7°F14.8°C 54.5°F12.5°C 86% 5.8 mph NE9.3 kmh NE 10.4 mph16.7 kmh 29.94 in1013.9 mb - 0.00 in0.0 mm 0.07 in1.8 mm
09:40 PM 58.6°F14.8°C 54.5°F12.5°C 86% 4.6 mph NE7.4 kmh NE 15.0 mph24.1 kmh 29.95 in1014.2 mb - 0.00 in0.0 mm 0.07 in1.8 mm
09:45 PM 58.5°F14.7°C 54.3°F12.4°C 86% 6.9 mph NNE11.1 kmh NNE 11.5 mph18.5 kmh 29.94 in1013.9 mb - 0.00 in0.0 mm 0.07 in1.8 mm
09:50 PM 58.5°F14.7°C 54.3°F12.4°C 86% 5.8 mph NNE9.3 kmh NNE 10.4 mph16.7 kmh 29.94 in1013.9 mb - 0.00 in0.0 mm 0.07 in1.8 mm
09:55 PM 58.4°F14.7°C 54.2°F12.3°C 86% 8.1 mph NNE13.0 kmh NNE 11.5 mph18.5 kmh 29.94 in1013.9 mb - 0.00 in0.0 mm 0.07 in1.8 mm
10:00 PM 58.3°F14.6°C 54.1°F12.3°C 86% 5.8 mph NE9.3 kmh NE 9.2 mph14.8 kmh 29.94 in1013.9 mb - 0.00 in0.0 mm 0.07 in1.8 mm
10:10 PM 58.4°F14.7°C 54.2°F12.3°C 86% 4.6 mph NE7.4 kmh NE 10.4 mph16.7 kmh 29.93 in1013.5 mb - 0.00 in0.0 mm 0.07 in1.8 mm
10:15 PM 58.3°F14.6°C 54.2°F12.3°C 86% 6.9 mph NE11.1 kmh NE 10.4 mph16.7 kmh 29.93 in1013.5 mb - 0.00 in0.0 mm 0.07 in1.8 mm
10:20 PM 58.3°F14.6°C 54.1°F12.3°C 86% 5.8 mph NE9.3 kmh NE 11.5 mph18.5 kmh 29.93 in1013.5 mb - 0.00 in0.0 mm 0.07 in1.8 mm
10:25 PM 58.3°F14.6°C 54.1°F12.3°C 86% 6.9 mph NE11.1 kmh NE 10.4 mph16.7 kmh 29.93 in1013.5 mb - 0.00 in0.0 mm 0.07 in1.8 mm
10:30 PM 58.3°F14.6°C 54.1°F12.3°C 86% 4.6 mph NNE7.4 kmh NNE 11.5 mph18.5 kmh 29.93 in1013.5 mb - 0.00 in0.0 mm 0.07 in1.8 mm
10:35 PM 58.3°F14.6°C 54.1°F12.3°C 86% 5.8 mph NE9.3 kmh NE 10.4 mph16.7 kmh 29.93 in1013.5 mb - 0.00 in0.0 mm 0.07 in1.8 mm
10:40 PM 58.3°F14.6°C 54.1°F12.3°C 86% 5.8 mph NE9.3 kmh NE 9.2 mph14.8 kmh 29.93 in1013.5 mb - 0.00 in0.0 mm 0.07 in1.8 mm
10:45 PM 58.3°F14.6°C 54.1°F12.3°C 86% 4.6 mph NE7.4 kmh NE 11.5 mph18.5 kmh 29.93 in1013.5 mb - 0.00 in0.0 mm 0.07 in1.8 mm
10:50 PM 58.4°F14.7°C 54.2°F12.3°C 86% 4.6 mph NE7.4 kmh NE 5.8 mph9.3 kmh 29.93 in1013.5 mb - 0.00 in0.0 mm 0.07 in1.8 mm
10:55 PM 58.3°F14.6°C 54.2°F12.3°C 86% 4.6 mph NE7.4 kmh NE 11.5 mph18.5 kmh 29.93 in1013.5 mb - 0.00 in0.0 mm 0.07 in1.8 mm
11:00 PM 58.3°F14.6°C 54.1°F12.3°C 86% 4.6 mph NE7.4 kmh NE 5.8 mph9.3 kmh 29.93 in1013.5 mb - 0.00 in0.0 mm 0.88 in22.4 mm
11:10 PM 58.4°F14.7°C 54.2°F12.3°C 86% 4.6 mph NE7.4 kmh NE 9.2 mph14.8 kmh 29.93 in1013.5 mb - 0.00 in0.0 mm 0.88 in22.4 mm
11:15 PM 58.4°F14.7°C 54.2°F12.3°C 86% 4.6 mph NE7.4 kmh NE 6.9 mph11.1 kmh 29.93 in1013.5 mb - 0.00 in0.0 mm 0.88 in22.4 mm
11:20 PM 58.3°F14.6°C 54.2°F12.3°C 86% 4.6 mph NE7.4 kmh NE 10.4 mph16.7 kmh 29.94 in1013.9 mb - 0.00 in0.0 mm 0.88 in22.4 mm
11:25 PM 58.4°F14.7°C 54.2°F12.3°C 86% 4.6 mph NE7.4 kmh NE 10.4 mph16.7 kmh 29.94 in1013.9 mb - 0.00 in0.0 mm 0.88 in22.4 mm
11:30 PM 58.4°F14.7°C 54.2°F12.3°C 86% 5.8 mph NE9.3 kmh NE 8.1 mph13.0 kmh 29.94 in1013.9 mb - 0.00 in0.0 mm 0.88 in22.4 mm